createdAt,value
2023-10-28T00:00:48.072Z,3.00
2023-10-28T00:05:50.866Z,3.10
2023-10-28T00:11:12.959Z,3.75
2023-10-28T00:16:16.191Z,3.85
2023-10-28T00:21:19.604Z,4.03
2023-10-28T00:26:24.080Z,3.83
2023-10-28T00:31:30.001Z,3.90
2023-10-28T00:36:32.800Z,4.10
2023-10-28T00:41:35.781Z,4.97
2023-10-28T00:46:38.551Z,4.90
2023-10-28T00:51:42.664Z,6.32
2023-10-28T00:56:45.461Z,5.10
2023-10-28T01:01:48.296Z,6.20
2023-10-28T01:06:51.063Z,6.53
2023-10-28T01:11:55.632Z,6.68
2023-10-28T01:16:58.408Z,6.47
2023-10-28T01:22:01.180Z,7.47
2023-10-28T01:27:04.033Z,7.85
2023-10-28T01:32:08.144Z,7.75
2023-10-28T01:37:11.032Z,7.90
2023-10-28T01:42:14.828Z,7.22
2023-10-28T01:47:18.411Z,7.45
2023-10-28T01:52:21.191Z,12.07
2023-10-28T01:57:23.938Z,16.10
2023-10-28T02:02:26.840Z,13.73
2023-10-28T02:07:30.581Z,12.43
2023-10-28T02:12:35.692Z,12.07
2023-10-28T02:17:39.895Z,13.15
2023-10-28T02:23:02.832Z,12.25
2023-10-28T02:28:05.769Z,13.18
2023-10-28T02:33:09.348Z,16.45
2023-10-28T02:38:12.099Z,14.65
2023-10-28T02:43:16.322Z,17.63
2023-10-28T02:48:19.054Z,14.63
2023-10-28T02:53:21.749Z,16.50
2023-10-28T02:58:24.666Z,15.23
2023-10-28T03:03:27.685Z,15.77
2023-10-28T03:08:30.718Z,14.85
2023-10-28T03:13:33.446Z,15.20
2023-10-28T03:18:36.153Z,16.60
2023-10-28T03:23:38.824Z,16.58
2023-10-28T03:28:41.571Z,17.77
2023-10-28T03:33:44.592Z,18.65
2023-10-28T03:38:47.378Z,18.67
2023-10-28T03:43:50.140Z,18.80
2023-10-28T03:48:53.200Z,25.50
2023-10-28T03:53:56.313Z,23.70
2023-10-28T03:58:58.995Z,25.50
2023-10-28T04:04:01.667Z,33.05
2023-10-28T04:09:05.586Z,30.67
2023-10-28T04:14:08.485Z,29.58
2023-10-28T04:19:11.311Z,24.90
2023-10-28T04:24:13.963Z,26.58
2023-10-28T04:29:16.739Z,24.88
2023-10-28T04:34:19.465Z,26.45
2023-10-28T04:39:25.233Z,23.20
2023-10-28T04:44:27.922Z,16.48
2023-10-28T04:49:30.947Z,21.25
2023-10-28T04:54:33.890Z,21.17
2023-10-28T04:59:36.539Z,22.83
2023-10-28T05:04:39.135Z,23.33
2023-10-28T05:09:41.963Z,22.10
2023-10-28T05:14:44.685Z,23.52
2023-10-28T05:19:47.592Z,23.80
2023-10-28T05:24:54.010Z,23.15
2023-10-28T05:29:56.698Z,25.80
2023-10-28T05:34:59.786Z,25.58
2023-10-28T05:40:02.517Z,26.95
2023-10-28T05:45:06.624Z,26.08
2023-10-28T05:50:09.896Z,25.10
2023-10-28T05:55:15.502Z,24.13
2023-10-28T06:00:18.660Z,26.50
2023-10-28T06:05:21.454Z,23.25
2023-10-28T06:10:26.239Z,25.33
2023-10-28T06:15:29.200Z,25.33
2023-10-28T06:20:32.038Z,24.42
2023-10-28T06:25:37.839Z,24.15
2023-10-28T06:30:48.381Z,22.45
2023-10-28T06:35:51.947Z,22.90
2023-10-28T06:40:54.824Z,20.85
2023-10-28T06:45:57.710Z,25.60
2023-10-28T06:51:01.566Z,23.10
2023-10-28T06:56:04.982Z,23.73
2023-10-28T07:01:09.709Z,23.25
2023-10-28T07:06:16.838Z,20.52
2023-10-28T07:11:19.709Z,24.63
2023-10-28T07:16:22.792Z,19.67
2023-10-28T07:21:25.705Z,19.05
2023-10-28T07:26:30.163Z,19.58
2023-10-28T07:31:32.867Z,12.75
2023-10-28T07:36:36.121Z,15.77
2023-10-28T07:41:39.598Z,17.73
2023-10-28T07:46:42.410Z,18.70
2023-10-28T07:51:45.147Z,18.42
2023-10-28T07:56:47.829Z,18.52
2023-10-28T08:01:50.595Z,14.90
2023-10-28T08:06:53.514Z,15.27
2023-10-28T08:11:56.289Z,13.57
2023-10-28T08:16:59.231Z,18.00
2023-10-28T08:22:02.085Z,16.27
2023-10-28T08:27:05.263Z,17.33
2023-10-28T08:32:08.701Z,17.30
2023-10-28T08:37:12.280Z,13.10
2023-10-28T08:42:15.178Z,16.35
2023-10-28T08:47:22.735Z,20.88
2023-10-28T08:52:26.712Z,19.92
2023-10-28T08:57:31.089Z,15.98
2023-10-28T09:02:35.275Z,17.77
2023-10-28T09:07:38.196Z,17.85
2023-10-28T09:12:42.738Z,16.63
2023-10-28T09:17:46.382Z,17.88
2023-10-28T09:22:49.890Z,12.95
2023-10-28T09:27:52.783Z,11.98
2023-10-28T09:32:56.827Z,13.82
2023-10-28T09:38:00.566Z,10.98
2023-10-28T09:43:04.847Z,14.15
2023-10-28T09:53:25.145Z,12.25
2023-10-28T09:58:52.314Z,8.40
2023-10-28T10:04:23.370Z,13.20
2023-10-28T10:09:26.332Z,13.68
2023-10-28T10:14:33.240Z,12.55
2023-10-28T10:19:39.543Z,8.20
2023-10-28T10:24:51.934Z,9.68
2023-10-28T10:30:08.066Z,10.68
2023-10-28T10:35:13.253Z,10.55
2023-10-28T10:40:16.374Z,10.07
2023-10-28T10:45:20.013Z,13.23
2023-10-28T10:50:23.714Z,11.98
2023-10-28T10:55:26.708Z,11.95
2023-10-28T11:00:29.606Z,10.55
2023-10-28T11:05:32.769Z,11.10
2023-10-28T11:10:36.087Z,9.88
2023-10-28T11:15:39.560Z,12.05
2023-10-28T11:20:43.946Z,13.15
2023-10-28T11:25:50.277Z,10.57
2023-10-28T11:30:53.095Z,13.20
2023-10-28T11:35:56.037Z,11.13
2023-10-28T11:41:06.512Z,10.32
2023-10-28T11:46:09.374Z,15.05
2023-10-28T11:51:12.199Z,12.45
2023-10-28T11:56:21.179Z,12.15
2023-10-28T12:01:24.012Z,11.50
2023-10-28T12:06:30.742Z,7.70
2023-10-28T12:11:36.226Z,10.05
2023-10-28T12:16:41.763Z,8.65
2023-10-28T12:21:44.536Z,9.65
2023-10-28T12:26:47.235Z,9.50
2023-10-28T12:31:50.044Z,6.43
2023-10-28T12:36:52.760Z,8.77
2023-10-28T12:41:55.570Z,9.25
2023-10-28T12:46:58.386Z,5.03
2023-10-28T12:52:02.030Z,6.95
2023-10-28T12:57:06.727Z,5.63
2023-10-28T13:02:09.537Z,6.03
2023-10-28T13:07:12.659Z,7.43
2023-10-28T13:12:15.665Z,7.00
2023-10-28T13:17:18.749Z,5.43
2023-10-28T13:22:22.728Z,5.75
2023-10-28T13:27:25.531Z,6.45
2023-10-28T13:32:37.476Z,5.80
2023-10-28T13:37:47.304Z,5.45
2023-10-28T13:42:50.350Z,6.10
2023-10-28T13:47:53.207Z,7.85
2023-10-28T13:52:56.108Z,5.40
2023-10-28T13:57:58.852Z,4.55
2023-10-28T14:03:03.741Z,4.93
2023-10-28T14:08:06.880Z,6.07
2023-10-28T14:13:09.648Z,5.93
2023-10-28T14:18:14.663Z,6.68
2023-10-28T14:23:17.842Z,6.80
2023-10-28T14:28:20.556Z,6.38
2023-10-28T14:33:23.331Z,5.75
2023-10-28T14:38:26.298Z,7.95
2023-10-28T14:43:29.646Z,6.43
2023-10-28T14:48:32.340Z,6.85
2023-10-28T14:53:35.330Z,5.78
2023-10-28T14:58:38.898Z,7.13
2023-10-28T15:03:41.751Z,6.90
2023-10-28T15:08:47.042Z,7.72
2023-10-28T15:13:51.247Z,7.10
2023-10-28T15:18:55.409Z,6.10
2023-10-28T15:23:59.593Z,6.72
2023-10-28T15:29:03.459Z,7.55
2023-10-28T15:34:06.471Z,6.88
2023-10-28T15:39:09.686Z,6.65
2023-10-28T15:44:12.541Z,7.88
2023-10-28T15:49:15.318Z,6.95
2023-10-28T15:54:19.046Z,6.80
2023-10-28T15:59:21.844Z,6.70
2023-10-28T16:04:24.608Z,6.80
2023-10-28T16:09:27.518Z,8.07
2023-10-28T16:14:32.681Z,7.10
2023-10-28T16:19:35.458Z,8.80
2023-10-28T16:24:38.509Z,7.38
2023-10-28T16:29:42.363Z,8.65
2023-10-28T16:34:48.514Z,8.98
2023-10-28T16:39:52.949Z,9.02
2023-10-28T16:44:55.930Z,7.68
2023-10-28T16:49:58.752Z,9.32
2023-10-28T16:55:02.418Z,9.00
2023-10-28T17:00:07.958Z,9.10
2023-10-28T17:10:14.667Z,9.27
2023-10-28T17:15:17.758Z,9.07
2023-10-28T17:20:20.670Z,7.30
2023-10-28T17:25:23.534Z,8.45
2023-10-28T17:30:26.450Z,6.22
2023-10-28T17:35:30.750Z,8.25
2023-10-28T17:40:35.219Z,8.45
2023-10-28T17:45:41.521Z,8.80
2023-10-28T17:50:44.649Z,6.50
2023-10-28T17:55:47.824Z,7.20
2023-10-28T18:00:50.855Z,6.80
2023-10-28T18:05:53.707Z,6.90
2023-10-28T18:10:58.071Z,7.53
2023-10-28T18:16:00.943Z,7.97
2023-10-28T18:21:03.808Z,5.80
2023-10-28T18:26:06.806Z,7.22
2023-10-28T18:31:09.592Z,7.07
2023-10-28T18:36:12.390Z,5.75
2023-10-28T18:41:15.395Z,7.45
2023-10-28T18:46:18.375Z,6.57
2023-10-28T18:51:21.250Z,6.95
2023-10-28T18:56:25.927Z,6.72
2023-10-28T19:01:30.293Z,5.72
2023-10-28T19:06:33.491Z,5.35
2023-10-28T19:11:36.326Z,3.95
2023-10-28T19:16:39.175Z,4.38
2023-10-28T19:21:43.126Z,4.45
2023-10-28T19:26:47.739Z,4.70
2023-10-28T19:31:50.607Z,4.57
2023-10-28T19:36:53.344Z,3.10
2023-10-28T19:41:56.013Z,3.58
2023-10-28T19:46:58.833Z,3.47
2023-10-28T19:52:02.257Z,3.40
2023-10-28T19:57:05.258Z,3.10
2023-10-28T20:02:08.295Z,2.78
2023-10-28T20:07:10.990Z,2.15
2023-10-28T20:12:13.739Z,2.30
2023-10-28T20:17:16.492Z,1.60
2023-10-28T20:22:20.571Z,1.73
2023-10-28T20:27:23.347Z,1.90
2023-10-28T20:32:26.923Z,1.50
2023-10-28T20:37:29.820Z,1.77
2023-10-28T20:42:32.609Z,1.40
2023-10-28T20:47:35.695Z,1.52
2023-10-28T20:52:39.263Z,1.60
2023-10-28T20:57:42.513Z,1.40
2023-10-28T21:02:45.991Z,1.58
2023-10-28T21:07:48.837Z,1.73
2023-10-28T21:12:51.688Z,1.60
2023-10-28T21:17:54.593Z,1.50
2023-10-28T21:22:57.378Z,1.60
2023-10-28T21:28:00.233Z,1.27
2023-10-28T21:33:03.013Z,1.55
2023-10-28T21:38:05.843Z,1.20
2023-10-28T21:43:08.531Z,1.08
2023-10-28T21:48:11.292Z,0.93
2023-10-28T21:53:13.994Z,1.42
2023-10-28T21:58:18.070Z,0.73
2023-10-28T22:10:03.267Z,0.93
2023-10-28T22:15:07.803Z,1.17
2023-10-28T22:20:12.623Z,0.95
2023-10-28T22:25:15.506Z,0.80
2023-10-28T22:30:20.492Z,1.50
2023-10-28T22:35:23.334Z,0.88
2023-10-28T22:40:26.083Z,0.70
2023-10-28T22:45:28.749Z,0.93
2023-10-28T22:50:31.441Z,0.93
2023-10-28T22:55:34.182Z,1.00
2023-10-28T23:00:36.942Z,0.85
2023-10-28T23:05:40.634Z,0.85
2023-10-28T23:10:43.546Z,0.85
2023-10-28T23:15:47.021Z,1.13
2023-10-28T23:20:52.234Z,1.15
2023-10-28T23:25:55.064Z,0.70
2023-10-28T23:30:57.780Z,0.80
2023-10-28T23:36:00.737Z,1.02
2023-10-28T23:41:03.616Z,0.80
2023-10-28T23:46:09.290Z,0.80
2023-10-28T23:51:12.052Z,1.13
2023-10-28T23:56:14.671Z,1.17
